Time;durP1;ratioP1;P1;durP2;ratioP2;P2;SDS_P1;SDS_P2;PMS_P1;PMS_P2;Temp;Humidity;BMP_temperature;BMP_pressure;BME280_temperature;BME280_humidity;BME280_pressure;Samples;Min_cycle;Max_cycle;Signal;HPM_P1;HPM_P2
2022/03/24 00:02:13;;;;;;;107.53;42.80;;;;;;;2.19;76.55;102018.72;5042523;28;20052;-69
2022/03/24 00:04:39;;;;;;;104.13;42.38;;;;;;;2.15;75.78;102004.84;5042972;28;20031;-69
2022/03/24 00:07:05;;;;;;;104.85;42.45;;;;;;;2.16;75.81;102010.84;5045596;28;20073;-70
2022/03/24 00:09:31;;;;;;;109.00;43.70;;;;;;;2.13;75.64;102011.56;5046712;28;20469;-70
2022/03/24 00:11:57;;;;;;;99.80;42.42;;;;;;;2.10;75.31;102001.16;5046542;28;20059;-70
2022/03/24 00:14:22;;;;;;;105.57;41.35;;;;;;;2.09;75.32;102013.06;5046579;28;20040;-69
2022/03/24 00:16:48;;;;;;;94.85;36.40;;;;;;;2.07;75.47;102006.13;5046671;28;20030;-69
2022/03/24 00:19:16;;;;;;;85.75;37.10;;;;;;;2.02;75.56;101997.31;5046218;28;20033;-69
2022/03/24 00:21:42;;;;;;;84.00;38.00;;;;;;;1.98;76.04;101992.03;5046309;28;20060;-69
2022/03/24 00:24:08;;;;;;;81.88;37.58;;;;;;;2.03;76.10;101993.97;5027433;28;20025;-70
2022/03/24 00:26:33;;;;;;;91.60;38.80;;;;;;;1.97;76.29;101995.41;5045446;28;20029;-69
2022/03/24 00:28:58;;;;;;;81.50;36.08;;;;;;;1.93;75.96;101988.31;5045245;28;20377;-68
2022/03/24 00:31:24;;;;;;;80.63;36.55;;;;;;;1.91;75.81;101982.25;5028170;28;20075;-68
2022/03/24 00:33:50;;;;;;;87.22;36.30;;;;;;;1.86;75.77;101988.81;5046052;28;20028;-69
2022/03/24 00:36:15;;;;;;;74.80;32.53;;;;;;;1.77;76.13;101984.09;5046093;28;20056;-69
2022/03/24 00:38:41;;;;;;;72.82;32.80;;;;;;;1.79;76.25;101991.84;5046072;28;20033;-69
2022/03/24 00:41:06;;;;;;;72.53;32.60;;;;;;;1.71;76.90;101978.66;5045790;28;20041;-68
2022/03/24 00:43:32;;;;;;;70.63;32.10;;;;;;;1.72;77.25;101986.41;5045979;28;20036;-68
2022/03/24 00:45:58;;;;;;;75.53;30.73;;;;;;;1.69;77.71;101981.09;5045972;28;20026;-68
2022/03/24 00:48:24;;;;;;;64.80;30.35;;;;;;;1.69;77.97;101983.66;5046257;28;20045;-68
2022/03/24 00:50:50;;;;;;;72.13;34.15;;;;;;;1.68;78.30;101976.78;5045921;28;20029;-68
2022/03/24 00:53:16;;;;;;;58.17;29.50;;;;;;;1.71;78.28;101976.09;5028094;28;20505;-68
2022/03/24 00:55:43;;;;;;;72.30;32.13;;;;;;;1.72;78.75;101971.06;5045941;28;20125;-68
2022/03/24 00:58:09;;;;;;;63.22;29.45;;;;;;;1.74;78.75;101963.44;5045891;28;20101;-68
2022/03/24 01:00:36;;;;;;;66.63;31.75;;;;;;;1.75;78.94;101960.06;5027727;28;20018;-68
2022/03/24 01:03:05;;;;;;;68.53;29.67;;;;;;;1.77;79.21;101955.94;5045421;28;20025;-68
2022/03/24 01:05:30;;;;;;;66.78;32.75;;;;;;;1.83;79.35;101953.69;5045567;28;20024;-68
2022/03/24 01:07:56;;;;;;;72.20;29.40;;;;;;;1.85;79.33;101946.94;5045558;28;20427;-69
2022/03/24 01:10:22;;;;;;;68.25;31.35;;;;;;;1.83;79.43;101950.22;5045363;28;20025;-68
2022/03/24 01:12:48;;;;;;;64.65;31.33;;;;;;;1.86;79.10;101945.28;5045586;28;20026;-68
2022/03/24 01:15:17;;;;;;;69.90;31.98;;;;;;;1.91;79.03;101942.94;5045366;28;20503;-67
2022/03/24 01:17:44;;;;;;;74.30;33.55;;;;;;;1.91;78.69;101931.03;5044155;28;20080;-67
2022/03/24 01:20:10;;;;;;;80.68;36.58;;;;;;;1.92;78.34;101925.09;5045174;28;20024;-68
2022/03/24 01:22:36;;;;;;;77.28;32.35;;;;;;;1.90;78.36;101929.25;5045171;28;20588;-68
2022/03/24 01:25:03;;;;;;;80.60;35.50;;;;;;;1.90;78.17;101926.69;5045059;28;20029;-68
2022/03/24 01:27:28;;;;;;;72.03;35.13;;;;;;;1.88;78.29;101922.31;5045098;28;20052;-69
2022/03/24 01:29:57;;;;;;;81.72;36.83;;;;;;;1.87;77.74;101929.09;5045092;28;20017;-68
2022/03/24 01:32:24;;;;;;;83.05;35.53;;;;;;;1.80;77.56;101925.34;5044945;28;20026;-68
2022/03/24 01:34:50;;;;;;;85.60;36.95;;;;;;;1.72;77.21;101917.28;5044963;28;20539;-68
2022/03/24 01:37:17;;;;;;;88.53;37.10;;;;;;;1.76;77.31;101927.69;5045094;28;20029;-68
2022/03/24 01:39:42;;;;;;;84.47;34.85;;;;;;;1.67;77.00;101917.81;5044804;28;20030;-68
2022/03/24 01:42:08;;;;;;;87.13;36.15;;;;;;;1.63;77.09;101928.72;5045042;28;20064;-68
2022/03/24 01:44:33;;;;;;;86.28;37.17;;;;;;;1.56;77.38;101919.81;5044960;28;20356;-68
2022/03/24 01:47:00;;;;;;;84.03;36.83;;;;;;;1.52;76.92;101923.03;5044756;28;20049;-68
2022/03/24 01:49:28;;;;;;;88.60;38.05;;;;;;;1.43;76.67;101919.16;5044432;28;20053;-67
2022/03/24 01:51:54;;;;;;;90.35;37.25;;;;;;;1.37;76.94;101916.28;5026762;28;20017;-68
2022/03/24 01:54:22;;;;;;;92.07;39.13;;;;;;;1.36;76.86;101917.06;5044362;28;20101;-67
2022/03/24 01:56:48;;;;;;;93.43;39.22;;;;;;;1.33;76.95;101911.78;5044642;28;20032;-67
2022/03/24 01:59:16;;;;;;;95.75;35.53;;;;;;;1.27;76.95;101899.53;5044354;28;20031;-67
2022/03/24 02:01:42;;;;;;;111.53;43.65;;;;;;;1.33;77.00;101909.22;5044524;28;20277;-69
2022/03/24 02:04:08;;;;;;;103.93;42.65;;;;;;;1.35;77.45;101903.41;5043991;28;20029;-68
2022/03/24 02:06:34;;;;;;;113.35;45.40;;;;;;;1.39;77.56;101890.75;5044530;28;20576;-67
2022/03/24 02:09:00;;;;;;;108.95;43.58;;;;;;;1.43;77.24;101903.81;5044293;28;20052;-67
2022/03/24 02:11:29;;;;;;;113.18;45.28;;;;;;;1.42;77.29;101903.72;5044312;28;20086;-68
2022/03/24 02:13:55;;;;;;;114.18;42.97;;;;;;;1.37;77.40;101893.25;5044038;28;20499;-68
2022/03/24 02:16:25;;;;;;;119.65;43.25;;;;;;;1.29;77.37;101885.16;5044120;28;20114;-67
2022/03/24 02:18:51;;;;;;;119.78;40.65;;;;;;;1.36;77.75;101891.47;5043873;28;20093;-68
2022/03/24 02:21:16;;;;;;;130.75;48.22;;;;;;;1.44;78.17;101890.19;5043977;28;20052;-68
2022/03/24 02:23:45;;;;;;;133.73;46.58;;;;;;;1.51;78.41;101893.97;5043953;28;20029;-68
2022/03/24 02:26:10;;;;;;;125.57;46.38;;;;;;;1.57;78.86;101895.97;5043902;28;20025;-70
2022/03/24 02:28:38;;;;;;;124.68;45.47;;;;;;;1.57;79.36;101886.63;5043567;28;20044;-68
2022/03/24 02:31:04;;;;;;;125.35;44.30;;;;;;;1.59;79.57;101889.25;5044022;28;20021;-67
2022/03/24 02:33:31;;;;;;;117.60;43.58;;;;;;;1.54;79.54;101878.78;5043549;28;20029;-68
2022/03/24 02:35:56;;;;;;;137.07;48.67;;;;;;;1.65;80.19;101899.81;5043796;28;20234;-67
2022/03/24 02:38:22;;;;;;;126.25;45.33;;;;;;;1.64;79.86;101890.38;5043720;28;20052;-68
2022/03/24 02:40:50;;;;;;;148.25;49.92;;;;;;;1.59;79.93;101873.88;5043727;28;20493;-69
2022/03/24 02:43:19;;;;;;;148.13;47.97;;;;;;;1.60;79.98;101880.75;5043578;28;20022;-68
2022/03/24 02:45:46;;;;;;;129.63;40.83;;;;;;;1.57;80.22;101886.63;5043351;28;20492;-68
2022/03/24 02:48:12;;;;;;;137.70;45.05;;;;;;;1.55;80.74;101885.66;5043277;28;20113;-68
2022/03/24 02:50:38;;;;;;;130.98;45.65;;;;;;;1.51;81.07;101890.53;5042878;28;20018;-68
2022/03/24 02:53:04;;;;;;;126.25;41.78;;;;;;;1.52;81.15;101887.19;5042452;28;20104;-69
2022/03/24 02:55:30;;;;;;;127.30;42.05;;;;;;;1.41;81.89;101879.78;5042513;28;20075;-68
2022/03/24 02:57:56;;;;;;;146.88;43.58;;;;;;;1.45;81.75;101889.38;5042233;28;20559;-68
2022/03/24 03:00:25;;;;;;;145.45;49.38;;;;;;;1.48;81.29;101883.56;5043148;28;20021;-69
2022/03/24 03:02:53;;;;;;;161.63;48.08;;;;;;;1.50;81.20;101879.41;5043407;28;20021;-68
2022/03/24 03:05:20;;;;;;;137.25;42.97;;;;;;;1.48;81.12;101884.47;5043293;28;20026;-69
2022/03/24 03:07:45;;;;;;;139.75;42.95;;;;;;;1.46;81.61;101875.81;5043524;28;20036;-69
2022/03/24 03:10:12;;;;;;;110.15;38.00;;;;;;;1.46;82.20;101878.38;5043317;28;20021;-68
2022/03/24 03:12:37;;;;;;;140.20;44.83;;;;;;;1.47;82.16;101875.00;5043523;28;20025;-68
2022/03/24 03:15:04;;;;;;;138.60;46.10;;;;;;;1.45;82.34;101871.47;5042939;28;20018;-68
2022/03/24 03:17:29;;;;;;;171.25;48.53;;;;;;;1.50;82.03;101873.41;5042934;28;20041;-68
2022/03/24 03:19:55;;;;;;;167.45;49.08;;;;;;;1.50;81.71;101874.31;5043133;28;20021;-68
2022/03/24 03:22:21;;;;;;;165.18;44.85;;;;;;;1.40;81.77;101865.25;5042946;28;20067;-68
2022/03/24 03:24:46;;;;;;;201.70;49.78;;;;;;;1.43;81.99;101878.22;5042986;28;20037;-68
2022/03/24 03:27:13;;;;;;;215.77;48.30;;;;;;;1.40;82.03;101872.03;5042510;28;20045;-67
2022/03/24 03:29:38;;;;;;;257.40;54.50;;;;;;;1.35;82.06;101869.25;5042043;28;20029;-68
2022/03/24 03:32:04;;;;;;;218.88;53.83;;;;;;;1.31;82.26;101877.56;5042776;28;20099;-68
2022/03/24 03:34:30;;;;;;;280.42;57.55;;;;;;;1.16;82.55;101858.03;5042723;28;20029;-67
2022/03/24 03:36:56;;;;;;;248.68;54.05;;;;;;;1.19;82.51;101865.88;5042999;28;20025;-68
2022/03/24 03:39:23;;;;;;;244.43;55.72;;;;;;;1.25;82.46;101882.34;5043000;28;20044;-67
2022/03/24 03:41:49;;;;;;;254.68;56.88;;;;;;;1.27;82.12;101873.94;5045478;28;20056;-68
2022/03/24 03:44:15;;;;;;;298.92;59.67;;;;;;;1.27;82.24;101875.63;5047020;28;20053;-68
2022/03/24 03:46:40;;;;;;;275.27;54.95;;;;;;;1.28;81.92;101878.25;5046829;28;20032;-68
2022/03/24 03:49:08;;;;;;;331.73;60.22;;;;;;;1.25;82.06;101877.25;5046723;28;20026;-68
2022/03/24 03:51:36;;;;;;;351.33;56.83;;;;;;;1.15;81.90;101860.50;5047098;28;20022;-68
2022/03/24 03:54:01;;;;;;;388.52;64.43;;;;;;;1.24;81.93;101876.34;5046804;28;20051;-68
2022/03/24 03:56:26;;;;;;;217.70;48.67;;;;;;;1.21;81.88;101866.84;5046741;28;20030;-68
2022/03/24 03:58:52;;;;;;;287.58;52.90;;;;;;;1.19;81.41;101876.09;5046952;28;20029;-68
2022/03/24 04:01:17;;;;;;;258.15;45.85;;;;;;;1.16;81.92;101872.47;5046618;28;20498;-68
2022/03/24 04:03:42;;;;;;;364.50;56.95;;;;;;;1.12;81.67;101868.88;5046478;28;20029;-68
2022/03/24 04:06:10;;;;;;;710.30;94.30;;;;;;;1.08;81.98;101865.28;5046582;28;20367;-68
2022/03/24 04:08:37;;;;;;;560.78;76.72;;;;;;;1.16;81.88;101869.94;5046852;28;20033;-68
2022/03/24 04:11:04;;;;;;;433.95;58.83;;;;;;;1.11;82.08;101878.25;5046701;28;20025;-68
2022/03/24 04:13:29;;;;;;;610.65;78.60;;;;;;;1.16;82.00;101870.81;5028622;28;20032;-68
2022/03/24 04:15:55;;;;;;;533.65;71.65;;;;;;;1.17;82.11;101870.00;5046293;28;20108;-68
2022/03/24 04:18:23;;;;;;;741.75;93.20;;;;;;;1.16;82.12;101867.38;5046278;28;20021;-68
2022/03/24 04:20:49;;;;;;;851.58;108.13;;;;;;;1.21;81.84;101871.97;5028602;28;20032;-68
2022/03/24 04:23:15;;;;;;;484.45;71.32;;;;;;;1.23;81.66;101865.22;5046290;28;20021;-68
2022/03/24 04:25:40;;;;;;;588.90;80.75;;;;;;;1.26;81.57;101872.19;5046091;28;20021;-68
2022/03/24 04:28:06;;;;;;;468.63;74.10;;;;;;;1.25;81.28;101870.41;5046358;28;20030;-68
2022/03/24 04:30:33;;;;;;;520.58;80.15;;;;;;;1.20;81.12;101875.28;5046258;28;20017;-68
2022/03/24 04:32:59;;;;;;;405.73;66.28;;;;;;;1.13;80.92;101860.41;5046014;28;20064;-68
2022/03/24 04:35:25;;;;;;;418.83;69.93;;;;;;;1.13;80.68;101857.88;5045861;28;20461;-68
2022/03/24 04:37:51;;;;;;;391.77;66.93;;;;;;;1.13;80.79;101865.53;5046160;28;20517;-68
2022/03/24 04:40:18;;;;;;;432.33;70.50;;;;;;;1.08;80.66;101862.72;5045782;28;20152;-68
2022/03/24 04:42:45;;;;;;;409.45;67.45;;;;;;;1.02;80.25;101864.06;5045936;28;20045;-68
2022/03/24 04:45:13;;;;;;;587.60;85.10;;;;;;;0.90;80.46;101859.16;5045686;28;20029;-68
2022/03/24 04:47:40;;;;;;;279.02;57.55;;;;;;;0.87;80.34;101859.88;5045462;28;20025;-68
2022/03/24 04:50:05;;;;;;;783.45;104.55;;;;;;;0.76;79.99;101849.06;5045724;28;20089;-68
2022/03/24 04:52:31;;;;;;;662.40;94.43;;;;;;;0.70;79.90;101861.50;5045579;28;20026;-67
2022/03/24 04:54:58;;;;;;;829.78;108.28;;;;;;;0.62;79.96;101861.06;5045592;28;20057;-67
2022/03/24 04:57:24;;;;;;;566.42;82.03;;;;;;;0.53;79.79;101852.91;5045570;28;20017;-67
2022/03/24 04:59:49;;;;;;;325.15;58.83;;;;;;;0.44;80.04;101864.34;5045644;28;20021;-67
2022/03/24 05:02:15;;;;;;;448.90;61.28;;;;;;;0.41;80.31;101848.84;5045819;28;20037;-67
2022/03/24 05:04:44;;;;;;;511.08;76.22;;;;;;;0.39;80.26;101857.19;5045258;28;20071;-68
2022/03/24 05:07:10;;;;;;;285.45;62.17;;;;;;;0.36;80.35;101852.81;5045586;28;20350;-68
2022/03/24 05:09:36;;;;;;;393.02;71.68;;;;;;;0.37;80.45;101854.56;5027661;28;20085;-68
2022/03/24 05:12:02;;;;;;;419.95;71.63;;;;;;;0.35;80.42;101845.94;5045355;28;20112;-68
2022/03/24 05:14:28;;;;;;;404.92;72.47;;;;;;;0.40;80.17;101847.06;5045528;28;20031;-68
2022/03/24 05:16:53;;;;;;;290.52;59.80;;;;;;;0.35;80.27;101836.59;5045300;28;20055;-70
2022/03/24 05:19:19;;;;;;;369.77;63.70;;;;;;;0.34;80.48;101842.50;5044927;28;20029;-68
2022/03/24 05:21:45;;;;;;;250.45;54.75;;;;;;;0.33;80.52;101839.84;5027369;28;20032;-68
2022/03/24 05:24:11;;;;;;;198.60;49.15;;;;;;;0.33;80.53;101847.53;5045164;28;20100;-68
2022/03/24 05:26:37;;;;;;;262.58;58.20;;;;;;;0.33;80.30;101842.41;5044917;28;20568;-68
2022/03/24 05:29:03;;;;;;;612.95;85.95;;;;;;;0.33;80.34;101835.63;5044947;28;20033;-69
2022/03/24 05:31:28;;;;;;;774.10;110.28;;;;;;;0.35;80.42;101843.38;5044819;28;20049;-68
2022/03/24 05:33:53;;;;;;;242.70;54.42;;;;;;;0.29;80.43;101848.16;5044532;28;20024;-68
2022/03/24 05:36:19;;;;;;;257.20;53.20;;;;;;;0.30;80.30;101832.03;5044735;28;20033;-69
2022/03/24 05:38:44;;;;;;;506.85;75.10;;;;;;;0.36;80.07;101834.91;5044885;28;20025;-69
2022/03/24 05:41:12;;;;;;;667.58;91.85;;;;;;;0.33;80.15;101840.75;5044621;28;20059;-68
2022/03/24 05:43:38;;;;;;;512.50;70.22;;;;;;;0.30;79.88;101844.78;5045066;28;20027;-70
2022/03/24 05:46:03;;;;;;;241.38;49.72;;;;;;;0.25;80.14;101831.75;5044605;28;20112;-70
2022/03/24 05:48:29;;;;;;;213.65;50.20;;;;;;;0.24;80.34;101823.19;5044392;28;20023;-68
2022/03/24 05:50:54;;;;;;;563.63;79.32;;;;;;;0.38;80.22;101838.44;5044431;28;20382;-68
2022/03/24 05:53:21;;;;;;;193.88;46.83;;;;;;;0.37;80.43;101831.56;5044687;28;20031;-69
2022/03/24 05:55:46;;;;;;;214.55;46.90;;;;;;;0.52;80.58;101831.56;5044482;28;20017;-68
2022/03/24 05:58:12;;;;;;;159.55;45.38;;;;;;;0.60;80.69;101830.31;5026692;28;20057;-68
2022/03/24 06:00:40;;;;;;;159.38;45.03;;;;;;;0.81;80.98;101833.97;5044348;28;20029;-68
2022/03/24 06:03:05;;;;;;;215.90;49.47;;;;;;;1.00;81.23;101833.28;5043784;28;20051;-68
2022/03/24 06:05:31;;;;;;;231.65;49.58;;;;;;;1.25;81.25;101833.75;5026162;28;20029;-69
2022/03/24 06:08:04;;;;;;;175.60;46.00;;;;;;;1.42;81.36;101820.13;5044282;28;20029;-68
2022/03/24 06:10:32;;;;;;;129.18;42.63;;;;;;;1.61;81.30;101826.22;5044488;28;20028;-67
2022/03/24 06:12:58;;;;;;;99.93;39.58;;;;;;;1.81;81.59;101831.47;5044253;28;20026;-67
2022/03/24 06:15:23;;;;;;;82.80;37.58;;;;;;;2.11;82.32;101828.69;5044086;28;20052;-70
2022/03/24 06:17:49;;;;;;;101.15;35.47;;;;;;;2.51;82.64;101831.44;5043673;28;20028;-67
2022/03/24 06:20:14;;;;;;;68.70;32.80;;;;;;;2.95;83.22;101827.53;5044020;28;20056;-66
2022/03/24 06:22:52;;;;;;;64.43;32.58;;;;;;;3.45;83.70;101823.72;5043950;28;20061;-66
2022/03/24 06:25:18;;;;;;;60.95;28.55;;;;;;;3.92;83.85;101818.88;5043779;28;20045;-67
2022/03/24 06:27:43;;;;;;;53.03;28.40;;;;;;;4.32;83.93;101817.06;5043505;28;20021;-68
2022/03/24 06:30:09;;;;;;;50.25;27.13;;;;;;;4.73;83.59;101826.34;5043625;28;20074;-67
2022/03/24 06:32:35;;;;;;;46.53;26.17;;;;;;;5.11;82.96;101826.06;5043537;28;20105;-68
2022/03/24 06:35:05;;;;;;;42.95;24.05;;;;;;;5.38;82.54;101817.59;5043112;28;20052;-69
2022/03/24 06:37:31;;;;;;;45.47;23.58;;;;;;;5.76;81.95;101824.03;5043374;28;20481;-70
2022/03/24 06:39:57;;;;;;;41.15;23.48;;;;;;;6.08;80.98;101829.44;5043622;28;20030;-69
2022/03/24 06:42:23;;;;;;;44.65;24.00;;;;;;;6.33;80.43;101827.63;5043511;28;20037;-70
2022/03/24 06:44:49;;;;;;;42.63;23.45;;;;;;;6.67;79.60;101820.97;5043400;28;20480;-68
2022/03/24 06:47:15;;;;;;;40.88;24.13;;;;;;;6.90;77.93;101818.19;5043286;28;20034;-70
2022/03/24 06:49:40;;;;;;;42.08;22.02;;;;;;;6.99;76.67;101821.88;5024638;28;20104;-69
2022/03/24 06:52:07;;;;;;;42.65;24.50;;;;;;;7.10;75.39;101822.19;5042484;28;20032;-69
2022/03/24 06:54:32;;;;;;;45.28;24.08;;;;;;;7.41;75.52;101820.50;5042770;28;20121;-69
2022/03/24 06:56:58;;;;;;;42.20;25.30;;;;;;;7.64;74.58;101818.53;5043342;28;20032;-72
2022/03/24 06:59:23;;;;;;;38.72;22.38;;;;;;;7.92;74.52;101813.19;5043313;28;20021;-69
2022/03/24 07:01:49;;;;;;;43.33;25.30;;;;;;;8.43;73.59;101817.00;5043450;28;20029;-70
2022/03/24 07:04:14;;;;;;;38.42;23.75;;;;;;;8.85;71.56;101817.09;5042946;28;20086;-69
2022/03/24 07:06:42;;;;;;;41.83;24.80;;;;;;;9.02;71.05;101816.56;5043344;28;20079;-70
2022/03/24 07:09:07;;;;;;;39.83;23.85;;;;;;;9.55;70.41;101809.84;5025705;28;20017;-70
2022/03/24 07:11:32;;;;;;;43.08;26.65;;;;;;;10.07;68.80;101815.88;5043279;28;20559;-70
2022/03/24 07:13:58;;;;;;;45.03;27.35;;;;;;;10.43;66.60;101811.25;5043251;28;20076;-69
2022/03/24 07:16:23;;;;;;;46.40;26.73;;;;;;;10.64;65.29;101816.78;5042338;28;20029;-69
2022/03/24 07:18:48;;;;;;;42.58;25.38;;;;;;;10.79;62.88;101815.25;5042980;28;20335;-69
2022/03/24 07:21:14;;;;;;;43.47;25.88;;;;;;;10.69;61.53;101814.25;5043140;28;20031;-69
2022/03/24 07:23:39;;;;;;;38.13;25.20;;;;;;;10.62;61.46;101820.22;5043377;28;20048;-70
2022/03/24 07:26:05;;;;;;;43.65;26.95;;;;;;;10.78;60.22;101822.16;5042832;28;20029;-70
2022/03/24 07:28:30;;;;;;;41.85;26.25;;;;;;;10.74;59.88;101811.72;5041886;28;20386;-69
2022/03/24 07:30:56;;;;;;;39.92;23.75;;;;;;;11.18;60.61;101826.16;5042309;28;20044;-69
2022/03/24 07:33:21;;;;;;;41.05;24.10;;;;;;;11.62;60.21;101816.22;5042938;28;20018;-70
2022/03/24 07:35:47;;;;;;;40.08;25.48;;;;;;;12.17;58.95;101825.41;5025268;28;20535;-69
2022/03/24 07:38:14;;;;;;;37.35;23.88;;;;;;;12.62;57.40;101823.09;5042955;28;20026;-70
2022/03/24 07:40:39;;;;;;;42.15;27.40;;;;;;;13.16;56.03;101815.53;5042398;28;20046;-69
2022/03/24 07:43:05;;;;;;;39.85;26.40;;;;;;;13.25;54.54;101815.53;5042489;28;20025;-69
2022/03/24 07:45:37;;;;;;;41.20;25.77;;;;;;;13.32;53.78;101822.50;5042321;28;20076;-69
2022/03/24 07:48:17;;;;;;;;;;;;;;;13.49;54.20;101809.53;5042790;28;20132;-69
2022/03/24 07:50:45;;;;;;;44.15;26.23;;;;;;;13.44;52.66;101818.19;5042399;28;19912;-70
2022/03/24 07:53:13;;;;;;;49.33;26.83;;;;;;;13.23;51.52;101825.09;5042191;28;20034;-70
2022/03/24 07:55:43;;;;;;;39.67;25.52;;;;;;;13.28;51.17;101812.94;5042519;28;20037;-69
2022/03/24 07:58:09;;;;;;;43.90;25.98;;;;;;;13.26;50.69;101819.88;5042703;28;20072;-69
2022/03/24 08:00:35;;;;;;;41.63;27.30;;;;;;;13.17;50.88;101815.53;5024718;28;20030;-69
2022/03/24 08:03:01;;;;;;;41.17;26.67;;;;;;;13.17;50.16;101830.28;5042557;28;20033;-69
2022/03/24 08:05:26;;;;;;;41.97;26.90;;;;;;;13.00;49.88;101833.72;5042284;28;20025;-69
2022/03/24 08:07:54;;;;;;;40.83;25.50;;;;;;;13.09;49.70;101833.75;5042685;28;20550;-70
2022/03/24 08:10:19;;;;;;;42.42;25.75;;;;;;;13.10;49.55;101830.28;5042346;28;20069;-70
2022/03/24 08:12:45;;;;;;;40.15;26.80;;;;;;;13.15;49.24;101830.28;5042485;28;20132;-70
2022/03/24 08:15:10;;;;;;;38.17;26.70;;;;;;;13.22;49.62;101825.97;5042336;28;20026;-70
2022/03/24 08:17:36;;;;;;;39.90;25.80;;;;;;;13.23;49.25;101825.09;5042443;28;20026;-65
2022/03/24 08:20:03;;;;;;;43.50;27.60;;;;;;;13.20;48.48;101817.25;5042122;28;20045;-66
2022/03/24 08:22:28;;;;;;;48.08;30.08;;;;;;;13.09;48.13;101823.31;5042297;28;20486;-66
2022/03/24 08:24:54;;;;;;;45.90;27.02;;;;;;;12.98;48.33;101820.69;5042248;28;20025;-63
2022/03/24 08:27:19;;;;;;;44.20;27.55;;;;;;;12.96;48.34;101822.41;5043438;28;20052;-65
2022/03/24 08:29:44;;;;;;;42.10;27.48;;;;;;;13.10;48.25;101822.44;5046025;28;20041;-65
2022/03/24 08:32:12;;;;;;;42.45;28.58;;;;;;;13.22;47.79;101819.03;5046138;28;20030;-65
2022/03/24 08:34:38;;;;;;;40.05;26.30;;;;;;;13.36;47.67;101819.06;5045551;28;20033;-65
2022/03/24 08:37:04;;;;;;;45.65;28.58;;;;;;;13.51;46.70;101812.19;5045538;28;20033;-65
2022/03/24 08:39:29;;;;;;;42.05;27.08;;;;;;;13.72;46.67;101815.69;5044930;28;20040;-65
2022/03/24 08:41:54;;;;;;;44.35;28.75;;;;;;;13.92;46.19;101814.81;5044465;28;20096;-65
2022/03/24 08:44:19;;;;;;;40.28;27.42;;;;;;;14.15;45.92;101820.06;5045714;28;20596;-65
2022/03/24 08:46:46;;;;;;;40.85;27.75;;;;;;;14.37;45.54;101818.28;5045603;28;20248;-65
2022/03/24 08:49:11;;;;;;;39.08;28.10;;;;;;;14.73;45.09;101817.31;5045181;28;20107;-65
2022/03/24 08:51:37;;;;;;;40.15;27.00;;;;;;;15.17;44.26;101825.03;5045624;28;20017;-67
2022/03/24 08:54:03;;;;;;;41.60;27.67;;;;;;;15.53;43.51;101824.84;5045543;28;20022;-65
2022/03/24 08:56:29;;;;;;;47.00;29.50;;;;;;;15.92;43.12;101830.66;5045284;28;20052;-66
2022/03/24 08:58:54;;;;;;;44.08;28.02;;;;;;;16.35;42.01;101829.44;5045522;28;20077;-66
2022/03/24 09:01:21;;;;;;;39.08;27.10;;;;;;;16.80;40.67;101824.59;5045511;28;20079;-66
2022/03/24 09:03:49;;;;;;;40.58;28.25;;;;;;;16.95;40.46;101827.00;5027077;28;20373;-66
2022/03/24 09:06:15;;;;;;;41.15;28.08;;;;;;;17.07;39.55;101817.25;5045032;28;20029;-66
2022/03/24 09:08:41;;;;;;;39.60;27.48;;;;;;;17.05;39.45;101814.66;5045144;28;20096;-66
2022/03/24 09:11:08;;;;;;;42.72;27.75;;;;;;;17.15;38.96;101830.31;5045054;28;20077;-66
2022/03/24 09:13:35;;;;;;;41.08;28.00;;;;;;;17.19;38.36;101821.50;5045362;28;20065;-66
2022/03/24 09:16:00;;;;;;;47.50;29.05;;;;;;;17.29;38.34;101820.50;5044932;28;20032;-67
2022/03/24 09:18:26;;;;;;;41.70;28.27;;;;;;;17.52;38.04;101818.41;5044898;28;20081;-66
2022/03/24 09:20:51;;;;;;;44.70;29.77;;;;;;;17.65;37.27;101811.22;5044987;28;20503;-66
2022/03/24 09:23:17;;;;;;;42.88;30.30;;;;;;;17.57;37.15;101806.94;5044509;28;20025;-66
2022/03/24 09:25:42;;;;;;;43.53;28.55;;;;;;;17.62;36.78;101814.75;5044552;28;20029;-66
2022/03/24 09:28:08;;;;;;;40.53;28.52;;;;;;;17.42;37.36;101807.19;5045004;28;20266;-66
2022/03/24 09:30:35;;;;;;;44.13;30.00;;;;;;;17.64;37.87;101812.09;5044762;28;20029;-66
2022/03/24 09:33:00;;;;;;;44.05;28.52;;;;;;;17.88;37.49;101807.34;5044512;28;20100;-67
2022/03/24 09:35:25;;;;;;;48.92;32.05;;;;;;;18.21;36.87;101818.22;5044619;28;20025;-67
2022/03/24 09:37:51;;;;;;;41.85;30.67;;;;;;;18.62;35.99;101817.44;5044379;28;20092;-67
2022/03/24 09:40:16;;;;;;;43.75;28.10;;;;;;;18.77;35.71;101811.88;5043830;28;20054;-67
2022/03/24 09:42:42;;;;;;;45.13;28.33;;;;;;;18.70;35.21;101807.66;5044633;28;20528;-67
2022/03/24 09:45:10;;;;;;;47.75;30.27;;;;;;;18.65;35.40;101818.25;5026253;28;20021;-67
2022/03/24 09:47:36;;;;;;;45.60;29.73;;;;;;;18.79;35.57;101814.47;5044235;28;20025;-67
2022/03/24 09:50:02;;;;;;;39.40;28.95;;;;;;;18.99;34.91;101808.81;5044335;28;20356;-67
2022/03/24 09:52:28;;;;;;;42.50;27.48;;;;;;;19.17;34.23;101804.91;5044334;28;20029;-66
2022/03/24 09:54:54;;;;;;;37.78;28.90;;;;;;;18.97;33.72;101807.97;5044506;28;20044;-66
2022/03/24 09:57:20;;;;;;;44.42;29.92;;;;;;;18.76;34.20;101804.88;5044374;28;20509;-67
2022/03/24 09:59:46;;;;;;;44.90;31.80;;;;;;;18.71;34.61;101809.38;5044266;28;20018;-67
2022/03/24 10:02:12;;;;;;;47.70;31.83;;;;;;;18.63;34.54;101809.53;5044084;28;20037;-67
2022/03/24 10:04:54;;;;;;;43.88;30.92;;;;;;;18.42;35.11;101805.53;5043954;28;20088;-66
2022/03/24 10:07:25;;;;;;;42.13;28.10;;;;;;;18.65;34.89;101822.66;5044040;28;20137;-66
2022/03/24 10:09:56;;;;;;;48.22;29.27;;;;;;;18.82;34.46;101820.53;5043611;28;20022;-66
2022/03/24 10:12:47;;;;;;;49.05;32.08;;;;;;;18.93;34.66;101822.09;5044282;28;20033;-66
2022/03/24 10:15:13;;;;;;;48.97;31.03;;;;;;;19.36;33.96;101819.44;5040838;28;20041;-67
2022/03/24 10:17:40;;;;;;;46.55;31.00;;;;;;;19.51;34.01;101816.44;5043988;28;20481;-66
2022/03/24 10:20:17;;;;;;;45.40;31.58;;;;;;;19.91;32.89;101814.63;5043727;28;20117;-67
2022/03/24 10:23:05;;;;;;;42.95;29.48;;;;;;;19.94;33.16;101816.28;5044244;28;20525;-66
2022/03/24 10:25:39;;;;;;;45.95;29.88;;;;;;;20.04;33.24;101809.94;5043792;28;20033;-66
2022/03/24 10:28:08;;;;;;;40.20;29.38;;;;;;;20.46;33.34;101807.94;5044014;28;20018;-65
2022/03/24 10:30:53;;;;;;;42.28;28.67;;;;;;;20.62;32.62;101808.38;5043806;28;20014;-66
2022/03/24 10:33:45;;;;;;;40.88;29.27;;;;;;;20.30;32.52;101816.25;5043419;28;20052;-66
2022/03/24 10:36:15;;;;;;;42.28;28.13;;;;;;;20.26;32.25;101806.72;5043626;28;20018;-66
2022/03/24 10:38:43;;;;;;;43.55;30.05;;;;;;;20.12;32.06;101790.41;5043561;28;20021;-66
2022/03/24 10:41:16;;;;;;;38.97;27.30;;;;;;;19.93;31.92;101806.66;5043126;28;20115;-66
2022/03/24 10:43:42;;;;;;;39.00;28.20;;;;;;;19.56;32.60;101800.53;5043795;28;20025;-67
2022/03/24 10:46:39;;;;;;;37.67;29.55;;;;;;;19.29;33.45;101798.53;5043408;28;20025;-67
2022/03/24 10:49:36;;;;;;;43.83;28.88;;;;;;;18.87;33.84;101806.41;5031053;28;20534;-65
2022/03/24 10:52:03;;;;;;;39.42;27.10;;;;;;;18.95;34.29;101812.38;5009899;28;20127;-66
2022/03/24 10:54:37;;;;;;;38.60;26.73;;;;;;;19.00;34.04;101812.28;5043320;28;20021;-65
2022/03/24 10:57:06;;;;;;;41.65;27.00;;;;;;;18.95;33.60;101804.50;5043359;28;20055;-66
2022/03/24 10:59:54;;;;;;;41.42;27.88;;;;;;;18.58;34.13;101798.22;5043095;28;20030;-65
2022/03/24 11:02:20;;;;;;;44.78;27.05;;;;;;;18.28;34.29;101790.03;5043121;28;20270;-65
2022/03/24 11:04:46;;;;;;;41.50;28.05;;;;;;;18.08;34.79;101792.09;5043122;28;20017;-65
2022/03/24 11:07:12;;;;;;;48.65;30.55;;;;;;;18.05;34.53;101796.56;5043144;28;20027;-66
2022/03/24 11:09:37;;;;;;;38.00;26.38;;;;;;;17.82;34.50;101797.81;5043353;28;20426;-66
2022/03/24 11:12:27;;;;;;;39.60;25.40;;;;;;;17.37;35.37;101794.13;5043568;28;20151;-65